createdAt,value
2022-09-13T00:04:59.108Z,2.70
2022-09-13T00:10:00.940Z,2.25
2022-09-13T00:15:02.820Z,2.47
2022-09-13T00:20:05.261Z,2.97
2022-09-13T00:25:07.941Z,2.45
2022-09-13T00:30:10.368Z,3.10
2022-09-13T00:35:12.324Z,2.95
2022-09-13T00:40:14.203Z,3.25
2022-09-13T00:45:18.428Z,3.30
2022-09-13T00:50:33.664Z,3.20
2022-09-13T00:55:42.222Z,2.83
2022-09-13T01:00:44.804Z,3.25
2022-09-13T01:05:53.684Z,2.92
2022-09-13T01:11:00.096Z,3.28
2022-09-13T01:16:02.292Z,3.63
2022-09-13T01:21:25.381Z,3.65
2022-09-13T01:26:30.180Z,3.00
2022-09-13T01:31:31.952Z,3.35
2022-09-13T01:36:49.671Z,3.88
2022-09-13T01:42:06.720Z,3.58
2022-09-13T01:47:23.530Z,3.65
2022-09-13T01:52:44.006Z,3.90
2022-09-13T01:58:29.815Z,3.67
2022-09-13T02:03:40.303Z,3.08
2022-09-13T02:08:47.428Z,3.45
2022-09-13T02:13:57.832Z,3.22
2022-09-13T02:24:14.019Z,3.15
2022-09-13T02:29:19.991Z,3.10
2022-09-13T02:34:25.782Z,3.22
2022-09-13T02:39:30.809Z,2.63
2022-09-13T02:44:42.615Z,2.60
2022-09-13T02:49:51.715Z,2.97
2022-09-13T02:55:04.255Z,2.95
2022-09-13T03:00:06.718Z,2.80
2022-09-13T03:05:08.651Z,2.97
2022-09-13T03:10:13.859Z,2.58
2022-09-13T03:15:47.481Z,3.22
2022-09-13T03:21:07.709Z,2.80
2022-09-13T03:26:23.940Z,2.75
2022-09-13T03:31:32.909Z,2.70
2022-09-13T03:36:57.266Z,2.80
2022-09-13T03:42:08.669Z,2.65
2022-09-13T03:47:11.753Z,4.60
2022-09-13T03:52:14.106Z,8.48
2022-09-13T03:57:23.001Z,15.85
2022-09-13T04:02:26.565Z,4.57
2022-09-13T04:07:28.417Z,8.40
2022-09-13T04:12:31.909Z,6.18
2022-09-13T04:17:33.962Z,3.55
2022-09-13T04:22:35.760Z,4.30
2022-09-13T04:27:37.593Z,3.17
2022-09-13T04:32:39.408Z,3.17
2022-09-13T04:37:41.226Z,3.42
2022-09-13T04:42:46.149Z,3.10
2022-09-13T04:47:55.294Z,2.95
2022-09-13T04:52:57.085Z,3.25
2022-09-13T04:57:58.848Z,3.47
2022-09-13T05:03:00.781Z,3.38
2022-09-13T05:08:02.566Z,3.85
2022-09-13T05:13:04.371Z,3.55
2022-09-13T05:18:06.208Z,3.88
2022-09-13T05:23:08.054Z,3.80
2022-09-13T05:28:09.874Z,3.85
2022-09-13T05:33:11.679Z,3.30
2022-09-13T05:38:13.480Z,3.47
2022-09-13T05:43:15.445Z,4.28
2022-09-13T05:48:17.451Z,4.13
2022-09-13T05:53:19.443Z,3.13
2022-09-13T05:58:21.330Z,3.80
2022-09-13T06:03:24.334Z,3.50
2022-09-13T06:08:28.496Z,3.20
2022-09-13T06:13:31.021Z,4.28
2022-09-13T06:18:33.754Z,3.67
2022-09-13T06:23:36.218Z,3.60
2022-09-13T06:28:38.820Z,3.60
2022-09-13T06:33:42.734Z,3.47
2022-09-13T06:38:45.867Z,3.20
2022-09-13T06:43:48.325Z,3.05
2022-09-13T06:48:50.287Z,2.90
2022-09-13T06:53:56.588Z,2.90
2022-09-13T06:59:01.211Z,4.15
2022-09-13T07:04:09.034Z,3.17
2022-09-13T07:09:18.142Z,3.15
2022-09-13T07:14:25.551Z,3.17
2022-09-13T07:19:28.831Z,2.80
2022-09-13T07:24:30.662Z,3.20
2022-09-13T07:29:32.511Z,2.25
2022-09-13T07:34:34.307Z,2.88
2022-09-13T07:39:36.106Z,2.53
2022-09-13T07:44:39.845Z,2.90
2022-09-13T07:49:41.832Z,2.50
2022-09-13T07:54:43.651Z,2.67
2022-09-13T07:59:45.445Z,2.75
2022-09-13T08:04:47.352Z,2.70
2022-09-13T08:09:49.528Z,3.30
2022-09-13T08:14:51.318Z,2.90
2022-09-13T08:19:53.116Z,3.47
2022-09-13T08:24:54.910Z,3.20
2022-09-13T08:29:56.727Z,3.15
2022-09-13T08:34:58.625Z,3.47
2022-09-13T08:40:00.504Z,2.80
2022-09-13T08:45:02.635Z,3.15
2022-09-13T08:50:18.842Z,3.92
2022-09-13T08:55:53.126Z,3.05
2022-09-13T09:01:20.676Z,3.25
2022-09-13T09:06:23.363Z,3.25
2022-09-13T09:11:35.907Z,3.67
2022-09-13T09:16:40.672Z,3.22
2022-09-13T09:21:44.938Z,3.15
2022-09-13T09:26:46.823Z,2.55
2022-09-13T09:32:00.755Z,2.45
2022-09-13T09:37:20.053Z,2.67
2022-09-13T09:42:28.694Z,2.92
2022-09-13T09:47:42.339Z,2.70
2022-09-13T09:53:01.795Z,2.97
2022-09-13T09:58:06.465Z,3.40
2022-09-13T10:03:18.951Z,2.92
2022-09-13T10:08:31.519Z,3.10
2022-09-13T10:13:33.869Z,2.50
2022-09-13T10:18:45.513Z,2.83
2022-09-13T10:23:50.545Z,2.35
2022-09-13T10:28:52.385Z,2.65
2022-09-13T10:34:01.803Z,2.90
2022-09-13T10:39:18.254Z,2.25
2022-09-13T10:44:26.669Z,2.25
2022-09-13T10:49:49.102Z,2.10
2022-09-13T10:54:51.041Z,2.47
2022-09-13T10:59:54.873Z,2.40
2022-09-13T11:05:29.241Z,1.63
2022-09-13T11:10:50.762Z,2.10
2022-09-13T11:15:55.468Z,1.80
2022-09-13T11:21:31.027Z,1.75
2022-09-13T11:27:04.682Z,2.08
2022-09-13T11:32:15.249Z,2.00
2022-09-13T11:37:44.196Z,1.75
2022-09-13T11:43:30.651Z,1.80
2022-09-13T11:48:47.378Z,1.70
2022-09-13T11:54:28.334Z,2.28
2022-09-13T11:59:49.743Z,1.48
2022-09-13T12:05:21.546Z,1.90
2022-09-13T12:10:30.466Z,1.60
2022-09-13T12:15:38.028Z,1.88
2022-09-13T12:20:44.450Z,1.48
2022-09-13T12:25:49.422Z,2.05
2022-09-13T12:30:59.623Z,1.58
2022-09-13T12:36:28.944Z,1.85
2022-09-13T12:42:18.633Z,1.42
2022-09-13T12:47:52.611Z,1.15
2022-09-13T12:52:54.502Z,1.30
2022-09-13T12:58:27.048Z,1.20
2022-09-13T13:03:37.211Z,1.40
2022-09-13T13:08:51.304Z,1.70
2022-09-13T13:13:56.312Z,1.52
2022-09-13T13:19:03.500Z,1.40
2022-09-13T13:24:17.394Z,1.45
2022-09-13T13:29:19.763Z,1.42
2022-09-13T13:34:24.605Z,1.25
2022-09-13T13:39:26.377Z,1.40
2022-09-13T13:44:28.329Z,1.33
2022-09-13T13:49:30.180Z,0.98
2022-09-13T13:54:53.599Z,1.20
2022-09-13T14:00:03.328Z,1.17
2022-09-13T14:05:26.403Z,1.20
2022-09-13T14:16:08.079Z,1.30
2022-09-13T14:21:26.829Z,1.30
2022-09-13T14:26:28.699Z,1.00
2022-09-13T14:31:30.671Z,1.30
2022-09-13T14:36:32.509Z,1.38
2022-09-13T14:41:38.049Z,1.00
2022-09-13T14:46:43.269Z,1.10
2022-09-13T14:51:55.293Z,1.20
2022-09-13T14:56:59.859Z,1.33
2022-09-13T15:02:25.985Z,1.35
2022-09-13T15:07:37.334Z,3.03
2022-09-13T15:12:57.929Z,1.48
2022-09-13T15:18:07.966Z,1.48
2022-09-13T15:23:38.998Z,1.58
2022-09-13T15:33:49.375Z,1.52
2022-09-13T15:39:09.468Z,1.60
2022-09-13T15:44:11.307Z,1.60
2022-09-13T15:49:17.996Z,1.35
2022-09-13T15:54:22.868Z,1.35
2022-09-13T15:59:24.700Z,2.50
2022-09-13T16:04:26.460Z,1.55
2022-09-13T16:09:28.299Z,1.20
2022-09-13T16:14:30.278Z,1.63
2022-09-13T16:19:32.124Z,1.48
2022-09-13T16:24:34.368Z,1.30
2022-09-13T16:29:36.217Z,1.90
2022-09-13T16:34:38.068Z,1.77
2022-09-13T16:39:39.886Z,1.17
2022-09-13T16:44:42.332Z,1.50
2022-09-13T16:49:44.552Z,1.17
2022-09-13T16:54:49.393Z,1.40
2022-09-13T16:59:52.840Z,1.50
2022-09-13T17:04:54.694Z,1.30
2022-09-13T17:09:56.892Z,1.42
2022-09-13T17:15:00.257Z,1.45
2022-09-13T17:20:06.702Z,1.33
2022-09-13T17:25:09.046Z,1.42
2022-09-13T17:30:12.576Z,1.58
2022-09-13T17:35:14.560Z,1.70
2022-09-13T17:40:16.416Z,1.55
2022-09-13T17:45:18.477Z,2.08
2022-09-13T17:50:20.399Z,1.55
2022-09-13T17:55:22.206Z,2.00
2022-09-13T18:00:24.297Z,2.10
2022-09-13T18:05:26.107Z,2.30
2022-09-13T18:10:53.038Z,2.28
2022-09-13T18:16:01.103Z,2.15
2022-09-13T18:21:03.670Z,1.98
2022-09-13T18:26:11.878Z,2.58
2022-09-13T18:31:18.044Z,3.38
2022-09-13T18:36:20.447Z,2.90
2022-09-13T18:41:35.294Z,2.78
2022-09-13T18:46:37.862Z,2.10
2022-09-13T18:51:43.823Z,2.08
2022-09-13T18:56:46.391Z,2.30
2022-09-13T19:01:49.024Z,1.92
2022-09-13T19:06:54.097Z,1.83
2022-09-13T19:11:56.065Z,2.13
2022-09-13T19:17:03.179Z,1.90
2022-09-13T19:22:05.129Z,2.00
2022-09-13T19:27:07.145Z,2.20
2022-09-13T19:32:09.016Z,2.00
2022-09-13T19:37:10.898Z,2.08
2022-09-13T19:42:13.418Z,1.90
2022-09-13T19:48:02.282Z,1.70
2022-09-13T19:52:37.936Z,1.88
2022-09-13T19:57:44.345Z,2.00
2022-09-13T20:02:48.495Z,2.00
2022-09-13T20:07:50.401Z,2.15
2022-09-13T20:12:54.500Z,2.33
2022-09-13T20:17:56.665Z,1.88
2022-09-13T20:22:58.453Z,2.00
2022-09-13T20:28:00.294Z,2.00
2022-09-13T20:33:03.677Z,1.77
2022-09-13T20:38:06.626Z,2.00
2022-09-13T20:43:08.436Z,1.92
2022-09-13T20:48:11.120Z,2.08
2022-09-13T20:53:14.417Z,2.20
2022-09-13T20:58:16.897Z,2.25
2022-09-13T21:03:18.716Z,2.33
2022-09-13T21:08:39.406Z,2.45
2022-09-13T21:13:44.748Z,2.15
2022-09-13T21:18:47.508Z,2.30
2022-09-13T21:23:49.816Z,2.75
2022-09-13T21:28:51.672Z,2.67
2022-09-13T21:33:58.918Z,2.70
2022-09-13T21:39:01.084Z,3.20
2022-09-13T21:44:03.167Z,2.92
2022-09-13T21:49:09.517Z,3.10
2022-09-13T21:54:17.288Z,2.83
2022-09-13T21:59:20.870Z,2.78
2022-09-13T22:04:27.633Z,2.70
2022-09-13T22:09:29.651Z,3.00
2022-09-13T22:14:31.427Z,3.40
2022-09-13T22:19:33.290Z,3.08
2022-09-13T22:24:36.593Z,3.80
2022-09-13T22:29:38.452Z,3.80
2022-09-13T22:34:40.915Z,3.50
2022-09-13T22:39:42.731Z,3.35
2022-09-13T22:44:44.760Z,3.08
2022-09-13T22:49:46.607Z,2.95
2022-09-13T22:54:50.879Z,3.47
2022-09-13T22:59:52.774Z,2.90
2022-09-13T23:04:54.633Z,3.15
2022-09-13T23:09:56.385Z,2.80
2022-09-13T23:14:58.127Z,2.90
2022-09-13T23:19:59.869Z,3.45
2022-09-13T23:25:01.643Z,4.20
2022-09-13T23:30:03.910Z,3.63
2022-09-13T23:35:06.074Z,3.70
2022-09-13T23:40:08.254Z,3.47
2022-09-13T23:45:10.639Z,3.75
2022-09-13T23:50:12.424Z,3.92
2022-09-13T23:55:14.461Z,3.75
